sensor_id;sensor_type;location;lat;lon;timestamp;P1;durP1;ratioP1;P2;durP2;ratioP2
40659;SDS011;26753;45.544;9.232;2022-07-25T00:02:20;8.63;;;6.55;;
40659;SDS011;26753;45.544;9.232;2022-07-25T00:04:46;9.52;;;6.70;;
40659;SDS011;26753;45.544;9.232;2022-07-25T00:07:12;13.00;;;6.55;;
40659;SDS011;26753;45.544;9.232;2022-07-25T00:09:38;10.63;;;6.20;;
40659;SDS011;26753;45.544;9.232;2022-07-25T00:12:04;11.60;;;6.90;;
40659;SDS011;26753;45.544;9.232;2022-07-25T00:14:31;10.27;;;6.70;;
40659;SDS011;26753;45.544;9.232;2022-07-25T00:16:57;9.13;;;6.70;;
40659;SDS011;26753;45.544;9.232;2022-07-25T00:19:22;12.27;;;6.38;;
40659;SDS011;26753;45.544;9.232;2022-07-25T00:21:48;10.90;;;6.82;;
40659;SDS011;26753;45.544;9.232;2022-07-25T00:24:15;8.95;;;6.35;;
40659;SDS011;26753;45.544;9.232;2022-07-25T00:26:41;8.13;;;6.30;;
40659;SDS011;26753;45.544;9.232;2022-07-25T00:29:07;9.00;;;6.72;;
40659;SDS011;26753;45.544;9.232;2022-07-25T00:31:32;12.30;;;6.57;;
40659;SDS011;26753;45.544;9.232;2022-07-25T00:33:58;9.73;;;6.63;;
40659;SDS011;26753;45.544;9.232;2022-07-25T00:36:24;10.75;;;6.60;;
40659;SDS011;26753;45.544;9.232;2022-07-25T00:38:50;10.63;;;7.00;;
40659;SDS011;26753;45.544;9.232;2022-07-25T00:41:15;11.65;;;6.65;;
40659;SDS011;26753;45.544;9.232;2022-07-25T00:43:42;12.35;;;6.95;;
40659;SDS011;26753;45.544;9.232;2022-07-25T00:46:11;12.65;;;6.60;;
40659;SDS011;26753;45.544;9.232;2022-07-25T00:48:43;10.43;;;6.68;;
40659;SDS011;26753;45.544;9.232;2022-07-25T00:51:09;9.98;;;6.97;;
40659;SDS011;26753;45.544;9.232;2022-07-25T00:53:36;16.10;;;8.25;;
40659;SDS011;26753;45.544;9.232;2022-07-25T00:56:09;10.50;;;7.38;;
40659;SDS011;26753;45.544;9.232;2022-07-25T00:58:35;13.73;;;8.88;;
40659;SDS011;26753;45.544;9.232;2022-07-25T01:01:12;12.63;;;8.48;;
40659;SDS011;26753;45.544;9.232;2022-07-25T01:03:47;9.05;;;7.68;;
40659;SDS011;26753;45.544;9.232;2022-07-25T01:06:24;10.77;;;8.00;;
40659;SDS011;26753;45.544;9.232;2022-07-25T01:09:03;14.55;;;8.80;;
40659;SDS011;26753;45.544;9.232;2022-07-25T01:11:29;11.23;;;7.95;;
40659;SDS011;26753;45.544;9.232;2022-07-25T01:13:54;8.65;;;7.35;;
40659;SDS011;26753;45.544;9.232;2022-07-25T01:16:20;10.55;;;7.07;;
40659;SDS011;26753;45.544;9.232;2022-07-25T01:18:46;10.55;;;7.47;;
40659;SDS011;26753;45.544;9.232;2022-07-25T01:21:12;10.43;;;7.18;;
40659;SDS011;26753;45.544;9.232;2022-07-25T01:23:38;9.50;;;7.00;;
40659;SDS011;26753;45.544;9.232;2022-07-25T01:26:05;11.60;;;7.30;;
40659;SDS011;26753;45.544;9.232;2022-07-25T01:28:30;12.77;;;7.63;;
40659;SDS011;26753;45.544;9.232;2022-07-25T01:30:56;10.35;;;6.95;;
40659;SDS011;26753;45.544;9.232;2022-07-25T01:33:22;11.18;;;7.60;;
40659;SDS011;26753;45.544;9.232;2022-07-25T01:35:48;9.70;;;7.25;;
40659;SDS011;26753;45.544;9.232;2022-07-25T01:38:14;12.60;;;7.13;;
40659;SDS011;26753;45.544;9.232;2022-07-25T01:40:41;10.98;;;7.55;;
40659;SDS011;26753;45.544;9.232;2022-07-25T01:43:07;10.40;;;7.90;;
40659;SDS011;26753;45.544;9.232;2022-07-25T01:45:33;13.18;;;8.65;;
40659;SDS011;26753;45.544;9.232;2022-07-25T01:47:59;10.80;;;8.90;;
40659;SDS011;26753;45.544;9.232;2022-07-25T01:50:25;10.35;;;7.90;;
40659;SDS011;26753;45.544;9.232;2022-07-25T01:52:51;10.98;;;7.78;;
40659;SDS011;26753;45.544;9.232;2022-07-25T01:55:17;13.40;;;8.10;;
40659;SDS011;26753;45.544;9.232;2022-07-25T01:57:43;8.55;;;7.32;;
40659;SDS011;26753;45.544;9.232;2022-07-25T02:00:09;10.77;;;7.10;;
40659;SDS011;26753;45.544;9.232;2022-07-25T02:02:37;8.35;;;7.35;;
40659;SDS011;26753;45.544;9.232;2022-07-25T02:05:08;11.27;;;7.30;;
40659;SDS011;26753;45.544;9.232;2022-07-25T02:07:35;10.65;;;7.32;;
40659;SDS011;26753;45.544;9.232;2022-07-25T02:10:02;10.30;;;7.75;;
40659;SDS011;26753;45.544;9.232;2022-07-25T02:12:29;11.00;;;7.47;;
40659;SDS011;26753;45.544;9.232;2022-07-25T02:14:55;9.77;;;7.68;;
40659;SDS011;26753;45.544;9.232;2022-07-25T02:17:21;12.88;;;7.93;;
40659;SDS011;26753;45.544;9.232;2022-07-25T02:19:47;10.55;;;7.45;;
40659;SDS011;26753;45.544;9.232;2022-07-25T02:22:12;10.20;;;7.38;;
40659;SDS011;26753;45.544;9.232;2022-07-25T02:24:38;10.75;;;6.93;;
40659;SDS011;26753;45.544;9.232;2022-07-25T02:27:04;9.85;;;7.38;;
40659;SDS011;26753;45.544;9.232;2022-07-25T02:29:30;11.68;;;7.35;;
40659;SDS011;26753;45.544;9.232;2022-07-25T02:31:57;11.15;;;7.05;;
40659;SDS011;26753;45.544;9.232;2022-07-25T02:34:23;8.45;;;6.53;;
40659;SDS011;26753;45.544;9.232;2022-07-25T02:36:49;8.63;;;6.90;;
40659;SDS011;26753;45.544;9.232;2022-07-25T02:39:14;10.25;;;6.60;;
40659;SDS011;26753;45.544;9.232;2022-07-25T02:41:41;8.57;;;6.85;;
40659;SDS011;26753;45.544;9.232;2022-07-25T02:44:07;9.68;;;7.10;;
40659;SDS011;26753;45.544;9.232;2022-07-25T02:46:33;8.52;;;6.90;;
40659;SDS011;26753;45.544;9.232;2022-07-25T02:48:59;10.50;;;6.72;;
40659;SDS011;26753;45.544;9.232;2022-07-25T02:51:25;9.23;;;6.75;;
40659;SDS011;26753;45.544;9.232;2022-07-25T02:53:51;10.40;;;6.57;;
40659;SDS011;26753;45.544;9.232;2022-07-25T02:56:17;10.23;;;6.95;;
40659;SDS011;26753;45.544;9.232;2022-07-25T02:58:43;11.43;;;7.00;;
40659;SDS011;26753;45.544;9.232;2022-07-25T03:01:08;11.18;;;7.18;;
40659;SDS011;26753;45.544;9.232;2022-07-25T03:03:34;9.90;;;6.88;;
40659;SDS011;26753;45.544;9.232;2022-07-25T03:06:00;8.98;;;6.15;;
40659;SDS011;26753;45.544;9.232;2022-07-25T03:08:26;12.18;;;6.85;;
40659;SDS011;26753;45.544;9.232;2022-07-25T03:10:52;11.20;;;6.53;;
40659;SDS011;26753;45.544;9.232;2022-07-25T03:13:18;9.95;;;7.00;;
40659;SDS011;26753;45.544;9.232;2022-07-25T03:15:47;12.25;;;6.35;;
40659;SDS011;26753;45.544;9.232;2022-07-25T03:20:41;11.50;;;7.20;;
40659;SDS011;26753;45.544;9.232;2022-07-25T03:23:07;10.77;;;7.95;;
40659;SDS011;26753;45.544;9.232;2022-07-25T03:25:33;11.18;;;8.15;;
40659;SDS011;26753;45.544;9.232;2022-07-25T03:27:59;10.75;;;8.02;;
40659;SDS011;26753;45.544;9.232;2022-07-25T03:30:24;10.60;;;7.97;;
40659;SDS011;26753;45.544;9.232;2022-07-25T03:32:50;12.52;;;7.80;;
40659;SDS011;26753;45.544;9.232;2022-07-25T03:35:16;11.18;;;7.30;;
40659;SDS011;26753;45.544;9.232;2022-07-25T03:37:42;10.45;;;6.90;;
40659;SDS011;26753;45.544;9.232;2022-07-25T03:40:08;8.75;;;6.65;;
40659;SDS011;26753;45.544;9.232;2022-07-25T03:42:34;11.55;;;7.38;;
40659;SDS011;26753;45.544;9.232;2022-07-25T03:45:00;12.05;;;7.20;;
40659;SDS011;26753;45.544;9.232;2022-07-25T03:47:25;11.52;;;6.75;;
40659;SDS011;26753;45.544;9.232;2022-07-25T03:49:51;12.45;;;6.93;;
40659;SDS011;26753;45.544;9.232;2022-07-25T03:52:17;8.70;;;6.63;;
40659;SDS011;26753;45.544;9.232;2022-07-25T03:54:43;8.68;;;7.07;;
40659;SDS011;26753;45.544;9.232;2022-07-25T03:57:09;10.48;;;7.50;;
40659;SDS011;26753;45.544;9.232;2022-07-25T03:59:36;10.63;;;6.82;;
40659;SDS011;26753;45.544;9.232;2022-07-25T04:02:05;13.32;;;7.05;;
40659;SDS011;26753;45.544;9.232;2022-07-25T04:04:31;11.07;;;6.80;;
40659;SDS011;26753;45.544;9.232;2022-07-25T04:06:57;13.73;;;7.20;;
40659;SDS011;26753;45.544;9.232;2022-07-25T04:09:23;10.57;;;6.85;;
40659;SDS011;26753;45.544;9.232;2022-07-25T04:11:49;10.40;;;6.90;;
40659;SDS011;26753;45.544;9.232;2022-07-25T04:14:14;8.90;;;6.88;;
40659;SDS011;26753;45.544;9.232;2022-07-25T04:16:40;11.45;;;7.20;;
40659;SDS011;26753;45.544;9.232;2022-07-25T04:19:06;15.25;;;6.95;;
40659;SDS011;26753;45.544;9.232;2022-07-25T04:21:32;9.40;;;6.57;;
40659;SDS011;26753;45.544;9.232;2022-07-25T04:23:58;11.70;;;7.13;;
40659;SDS011;26753;45.544;9.232;2022-07-25T04:26:24;11.13;;;6.80;;
40659;SDS011;26753;45.544;9.232;2022-07-25T04:28:50;8.88;;;6.35;;
40659;SDS011;26753;45.544;9.232;2022-07-25T04:31:16;10.32;;;7.13;;
40659;SDS011;26753;45.544;9.232;2022-07-25T04:33:42;11.05;;;7.07;;
40659;SDS011;26753;45.544;9.232;2022-07-25T04:36:08;14.18;;;7.03;;
40659;SDS011;26753;45.544;9.232;2022-07-25T04:38:34;11.93;;;7.20;;
40659;SDS011;26753;45.544;9.232;2022-07-25T04:41:00;10.23;;;6.72;;
40659;SDS011;26753;45.544;9.232;2022-07-25T04:43:28;9.07;;;6.93;;
40659;SDS011;26753;45.544;9.232;2022-07-25T04:45:54;11.38;;;6.90;;
40659;SDS011;26753;45.544;9.232;2022-07-25T04:48:20;10.35;;;7.20;;
40659;SDS011;26753;45.544;9.232;2022-07-25T04:50:46;14.20;;;7.18;;
40659;SDS011;26753;45.544;9.232;2022-07-25T04:53:11;10.52;;;6.88;;
40659;SDS011;26753;45.544;9.232;2022-07-25T04:55:37;13.80;;;7.10;;
40659;SDS011;26753;45.544;9.232;2022-07-25T04:58:04;13.95;;;6.78;;
40659;SDS011;26753;45.544;9.232;2022-07-25T05:00:30;12.77;;;7.00;;
40659;SDS011;26753;45.544;9.232;2022-07-25T05:02:57;11.60;;;7.25;;
40659;SDS011;26753;45.544;9.232;2022-07-25T05:05:23;10.48;;;6.93;;
40659;SDS011;26753;45.544;9.232;2022-07-25T05:07:49;9.50;;;6.72;;
40659;SDS011;26753;45.544;9.232;2022-07-25T05:10:15;9.70;;;6.65;;
40659;SDS011;26753;45.544;9.232;2022-07-25T05:12:41;12.90;;;6.70;;
40659;SDS011;26753;45.544;9.232;2022-07-25T05:15:07;11.50;;;6.90;;
40659;SDS011;26753;45.544;9.232;2022-07-25T05:17:33;11.38;;;7.05;;
40659;SDS011;26753;45.544;9.232;2022-07-25T05:19:59;11.40;;;6.97;;
40659;SDS011;26753;45.544;9.232;2022-07-25T05:22:25;14.48;;;7.15;;
40659;SDS011;26753;45.544;9.232;2022-07-25T05:24:51;11.07;;;6.90;;
40659;SDS011;26753;45.544;9.232;2022-07-25T05:27:19;12.80;;;7.40;;
40659;SDS011;26753;45.544;9.232;2022-07-25T05:29:47;22.20;;;7.18;;
40659;SDS011;26753;45.544;9.232;2022-07-25T05:32:13;16.60;;;7.65;;
40659;SDS011;26753;45.544;9.232;2022-07-25T05:34:39;18.42;;;7.50;;
40659;SDS011;26753;45.544;9.232;2022-07-25T05:37:05;24.40;;;7.10;;
40659;SDS011;26753;45.544;9.232;2022-07-25T05:39:31;18.80;;;7.30;;
40659;SDS011;26753;45.544;9.232;2022-07-25T05:41:57;23.95;;;7.85;;
40659;SDS011;26753;45.544;9.232;2022-07-25T05:44:22;21.02;;;7.43;;
40659;SDS011;26753;45.544;9.232;2022-07-25T05:46:48;24.73;;;7.97;;
40659;SDS011;26753;45.544;9.232;2022-07-25T05:49:17;29.25;;;8.25;;
40659;SDS011;26753;45.544;9.232;2022-07-25T05:51:43;27.73;;;7.75;;
40659;SDS011;26753;45.544;9.232;2022-07-25T05:54:17;27.35;;;8.45;;
40659;SDS011;26753;45.544;9.232;2022-07-25T05:56:43;18.42;;;7.20;;
40659;SDS011;26753;45.544;9.232;2022-07-25T05:59:09;16.30;;;7.28;;
40659;SDS011;26753;45.544;9.232;2022-07-25T06:01:35;13.40;;;7.00;;
40659;SDS011;26753;45.544;9.232;2022-07-25T06:04:01;17.73;;;7.07;;
40659;SDS011;26753;45.544;9.232;2022-07-25T06:06:26;18.73;;;7.63;;
40659;SDS011;26753;45.544;9.232;2022-07-25T06:08:56;29.75;;;8.25;;
40659;SDS011;26753;45.544;9.232;2022-07-25T06:11:42;33.63;;;8.40;;
40659;SDS011;26753;45.544;9.232;2022-07-25T06:14:08;25.58;;;7.82;;
40659;SDS011;26753;45.544;9.232;2022-07-25T06:16:34;22.70;;;8.25;;
40659;SDS011;26753;45.544;9.232;2022-07-25T06:18:59;23.83;;;7.20;;
40659;SDS011;26753;45.544;9.232;2022-07-25T06:21:25;12.43;;;7.00;;
40659;SDS011;26753;45.544;9.232;2022-07-25T06:23:51;16.58;;;7.45;;
40659;SDS011;26753;45.544;9.232;2022-07-25T06:26:17;11.95;;;6.70;;
40659;SDS011;26753;45.544;9.232;2022-07-25T06:28:43;15.27;;;7.15;;
40659;SDS011;26753;45.544;9.232;2022-07-25T06:31:12;15.52;;;6.97;;
40659;SDS011;26753;45.544;9.232;2022-07-25T06:33:38;18.38;;;7.32;;
40659;SDS011;26753;45.544;9.232;2022-07-25T06:36:07;13.63;;;6.65;;
40659;SDS011;26753;45.544;9.232;2022-07-25T06:38:35;10.70;;;6.80;;
40659;SDS011;26753;45.544;9.232;2022-07-25T06:41:04;12.10;;;7.10;;
40659;SDS011;26753;45.544;9.232;2022-07-25T06:43:30;11.68;;;6.97;;
40659;SDS011;26753;45.544;9.232;2022-07-25T06:45:58;13.80;;;6.60;;
40659;SDS011;26753;45.544;9.232;2022-07-25T06:48:24;15.98;;;7.05;;
40659;SDS011;26753;45.544;9.232;2022-07-25T06:50:50;13.18;;;6.78;;
40659;SDS011;26753;45.544;9.232;2022-07-25T06:53:16;14.40;;;6.72;;
40659;SDS011;26753;45.544;9.232;2022-07-25T06:55:42;14.02;;;7.28;;
40659;SDS011;26753;45.544;9.232;2022-07-25T06:58:10;14.38;;;6.93;;
40659;SDS011;26753;45.544;9.232;2022-07-25T07:00:37;17.88;;;6.70;;
40659;SDS011;26753;45.544;9.232;2022-07-25T07:03:03;15.00;;;7.15;;
40659;SDS011;26753;45.544;9.232;2022-07-25T07:05:30;13.00;;;6.35;;
40659;SDS011;26753;45.544;9.232;2022-07-25T07:07:58;20.50;;;7.82;;
40659;SDS011;26753;45.544;9.232;2022-07-25T07:10:28;15.18;;;7.22;;
40659;SDS011;26753;45.544;9.232;2022-07-25T07:13:04;18.25;;;7.28;;
40659;SDS011;26753;45.544;9.232;2022-07-25T07:15:37;16.80;;;7.85;;
40659;SDS011;26753;45.544;9.232;2022-07-25T07:18:06;15.77;;;7.57;;
40659;SDS011;26753;45.544;9.232;2022-07-25T07:20:32;15.38;;;7.20;;
40659;SDS011;26753;45.544;9.232;2022-07-25T07:22:58;12.82;;;7.18;;
40659;SDS011;26753;45.544;9.232;2022-07-25T07:25:25;15.18;;;7.35;;
40659;SDS011;26753;45.544;9.232;2022-07-25T07:27:51;12.48;;;7.28;;
40659;SDS011;26753;45.544;9.232;2022-07-25T07:30:17;14.60;;;6.90;;
40659;SDS011;26753;45.544;9.232;2022-07-25T07:32:43;10.82;;;6.90;;
40659;SDS011;26753;45.544;9.232;2022-07-25T07:35:10;18.80;;;7.35;;
40659;SDS011;26753;45.544;9.232;2022-07-25T07:37:40;13.48;;;7.38;;
40659;SDS011;26753;45.544;9.232;2022-07-25T07:40:08;17.70;;;7.20;;
40659;SDS011;26753;45.544;9.232;2022-07-25T07:42:40;14.45;;;7.50;;
40659;SDS011;26753;45.544;9.232;2022-07-25T07:45:19;13.60;;;6.95;;
40659;SDS011;26753;45.544;9.232;2022-07-25T07:47:50;13.55;;;7.40;;
40659;SDS011;26753;45.544;9.232;2022-07-25T07:50:17;13.73;;;7.82;;
40659;SDS011;26753;45.544;9.232;2022-07-25T07:52:48;16.03;;;7.70;;
40659;SDS011;26753;45.544;9.232;2022-07-25T07:55:14;11.10;;;7.65;;
40659;SDS011;26753;45.544;9.232;2022-07-25T07:57:59;17.30;;;10.57;;
40659;SDS011;26753;45.544;9.232;2022-07-25T08:00:25;17.95;;;7.90;;
40659;SDS011;26753;45.544;9.232;2022-07-25T08:02:52;10.93;;;7.43;;
40659;SDS011;26753;45.544;9.232;2022-07-25T08:05:19;11.85;;;7.35;;
40659;SDS011;26753;45.544;9.232;2022-07-25T08:07:55;11.97;;;7.70;;
40659;SDS011;26753;45.544;9.232;2022-07-25T08:10:23;11.40;;;7.47;;
40659;SDS011;26753;45.544;9.232;2022-07-25T08:12:58;16.23;;;7.38;;
40659;SDS011;26753;45.544;9.232;2022-07-25T08:15:56;15.52;;;7.40;;
40659;SDS011;26753;45.544;9.232;2022-07-25T08:18:56;14.93;;;7.10;;
40659;SDS011;26753;45.544;9.232;2022-07-25T08:21:23;10.05;;;6.88;;
40659;SDS011;26753;45.544;9.232;2022-07-25T08:23:51;8.63;;;6.30;;
40659;SDS011;26753;45.544;9.232;2022-07-25T08:26:17;14.73;;;6.88;;
40659;SDS011;26753;45.544;9.232;2022-07-25T08:28:46;10.52;;;6.28;;
40659;SDS011;26753;45.544;9.232;2022-07-25T08:31:20;12.45;;;6.35;;
40659;SDS011;26753;45.544;9.232;2022-07-25T08:33:49;13.27;;;6.22;;
40659;SDS011;26753;45.544;9.232;2022-07-25T08:36:20;13.15;;;6.32;;
40659;SDS011;26753;45.544;9.232;2022-07-25T08:38:55;14.38;;;6.05;;
40659;SDS011;26753;45.544;9.232;2022-07-25T08:41:21;9.68;;;6.00;;
40659;SDS011;26753;45.544;9.232;2022-07-25T08:43:53;12.38;;;5.70;;
40659;SDS011;26753;45.544;9.232;2022-07-25T08:46:22;11.85;;;5.63;;
40659;SDS011;26753;45.544;9.232;2022-07-25T08:48:58;11.02;;;5.43;;
40659;SDS011;26753;45.544;9.232;2022-07-25T08:51:27;7.50;;;5.18;;
40659;SDS011;26753;45.544;9.232;2022-07-25T08:53:53;10.32;;;5.25;;
40659;SDS011;26753;45.544;9.232;2022-07-25T08:58:59;9.07;;;5.53;;
40659;SDS011;26753;45.544;9.232;2022-07-25T09:01:25;9.93;;;4.90;;
40659;SDS011;26753;45.544;9.232;2022-07-25T09:03:57;6.65;;;4.85;;
40659;SDS011;26753;45.544;9.232;2022-07-25T09:06:23;5.57;;;4.35;;
40659;SDS011;26753;45.544;9.232;2022-07-25T09:08:59;6.50;;;4.60;;
40659;SDS011;26753;45.544;9.232;2022-07-25T09:11:30;7.82;;;5.30;;
40659;SDS011;26753;45.544;9.232;2022-07-25T09:14:13;7.78;;;5.10;;
40659;SDS011;26753;45.544;9.232;2022-07-25T09:16:53;8.10;;;5.32;;
40659;SDS011;26753;45.544;9.232;2022-07-25T09:19:20;8.68;;;4.95;;
40659;SDS011;26753;45.544;9.232;2022-07-25T09:21:57;10.90;;;4.70;;
40659;SDS011;26753;45.544;9.232;2022-07-25T09:24:29;9.13;;;4.90;;
40659;SDS011;26753;45.544;9.232;2022-07-25T09:27:00;7.30;;;5.07;;
40659;SDS011;26753;45.544;9.232;2022-07-25T09:29:33;7.28;;;4.88;;
40659;SDS011;26753;45.544;9.232;2022-07-25T09:32:16;10.70;;;5.63;;
40659;SDS011;26753;45.544;9.232;2022-07-25T09:34:47;8.80;;;5.20;;
40659;SDS011;26753;45.544;9.232;2022-07-25T09:37:18;7.80;;;5.25;;
40659;SDS011;26753;45.544;9.232;2022-07-25T09:39:49;8.55;;;5.63;;
40659;SDS011;26753;45.544;9.232;2022-07-25T09:42:23;10.90;;;5.55;;
40659;SDS011;26753;45.544;9.232;2022-07-25T09:45:16;9.00;;;5.07;;
40659;SDS011;26753;45.544;9.232;2022-07-25T09:48:02;11.50;;;5.43;;
40659;SDS011;26753;45.544;9.232;2022-07-25T09:50:32;7.18;;;4.90;;
40659;SDS011;26753;45.544;9.232;2022-07-25T09:52:59;12.68;;;5.10;;
40659;SDS011;26753;45.544;9.232;2022-07-25T09:55:26;11.20;;;5.18;;
40659;SDS011;26753;45.544;9.232;2022-07-25T09:57:58;9.00;;;5.35;;
40659;SDS011;26753;45.544;9.232;2022-07-25T10:00:24;8.38;;;5.72;;
40659;SDS011;26753;45.544;9.232;2022-07-25T10:08:44;10.50;;;5.20;;
40659;SDS011;26753;45.544;9.232;2022-07-25T10:14:21;13.98;;;5.15;;
40659;SDS011;26753;45.544;9.232;2022-07-25T10:16:55;10.07;;;4.90;;
40659;SDS011;26753;45.544;9.232;2022-07-25T10:22:57;12.27;;;5.30;;
40659;SDS011;26753;45.544;9.232;2022-07-25T10:25:15;10.18;;;5.70;;
40659;SDS011;26753;45.544;9.232;2022-07-25T10:30:24;7.35;;;5.30;;
40659;SDS011;26753;45.544;9.232;2022-07-25T10:33:09;9.48;;;5.40;;
40659;SDS011;26753;45.544;9.232;2022-07-25T10:35:38;11.07;;;5.10;;
40659;SDS011;26753;45.544;9.232;2022-07-25T10:38:09;9.02;;;5.50;;
40659;SDS011;26753;45.544;9.232;2022-07-25T10:40:36;8.10;;;5.20;;
40659;SDS011;26753;45.544;9.232;2022-07-25T10:45:43;8.18;;;5.00;;
40659;SDS011;26753;45.544;9.232;2022-07-25T10:50:50;8.90;;;5.30;;
40659;SDS011;26753;45.544;9.232;2022-07-25T10:53:44;8.63;;;5.10;;
40659;SDS011;26753;45.544;9.232;2022-07-25T10:56:19;8.98;;;5.40;;
40659;SDS011;26753;45.544;9.232;2022-07-25T10:58:48;15.38;;;5.60;;
40659;SDS011;26753;45.544;9.232;2022-07-25T11:01:26;9.20;;;5.15;;
40659;SDS011;26753;45.544;9.232;2022-07-25T11:03:58;6.80;;;5.22;;
40659;SDS011;26753;45.544;9.232;2022-07-25T11:06:33;8.50;;;5.18;;
40659;SDS011;26753;45.544;9.232;2022-07-25T11:09:19;8.18;;;5.50;;
40659;SDS011;26753;45.544;9.232;2022-07-25T11:11:48;9.13;;;5.22;;
40659;SDS011;26753;45.544;9.232;2022-07-25T11:14:23;8.77;;;5.30;;
40659;SDS011;26753;45.544;9.232;2022-07-25T11:16:57;7.55;;;5.43;;
40659;SDS011;26753;45.544;9.232;2022-07-25T11:19:40;13.32;;;5.75;;
40659;SDS011;26753;45.544;9.232;2022-07-25T11:22:07;9.60;;;5.70;;
40659;SDS011;26753;45.544;9.232;2022-07-25T11:24:38;8.85;;;5.60;;
40659;SDS011;26753;45.544;9.232;2022-07-25T11:27:09;16.50;;;5.40;;
40659;SDS011;26753;45.544;9.232;2022-07-25T11:29:36;10.13;;;5.60;;
40659;SDS011;26753;45.544;9.232;2022-07-25T11:32:06;9.57;;;5.13;;
40659;SDS011;26753;45.544;9.232;2022-07-25T11:34:37;7.90;;;5.63;;
40659;SDS011;26753;45.544;9.232;2022-07-25T11:37:19;8.07;;;5.40;;
40659;SDS011;26753;45.544;9.232;2022-07-25T11:39:46;11.07;;;6.00;;
40659;SDS011;26753;45.544;9.232;2022-07-25T11:42:13;8.27;;;5.82;;
40659;SDS011;26753;45.544;9.232;2022-07-25T11:44:41;8.25;;;5.95;;
40659;SDS011;26753;45.544;9.232;2022-07-25T11:47:30;8.77;;;5.68;;
40659;SDS011;26753;45.544;9.232;2022-07-25T11:50:00;6.93;;;5.43;;
40659;SDS011;26753;45.544;9.232;2022-07-25T11:55:27;7.03;;;5.65;;
40659;SDS011;26753;45.544;9.232;2022-07-25T11:57:56;13.27;;;6.30;;
40659;SDS011;26753;45.544;9.232;2022-07-25T12:00:24;10.18;;;6.38;;
40659;SDS011;26753;45.544;9.232;2022-07-25T12:02:51;14.13;;;6.10;;
40659;SDS011;26753;45.544;9.232;2022-07-25T12:05:19;8.55;;;5.70;;
40659;SDS011;26753;45.544;9.232;2022-07-25T12:07:46;7.53;;;5.45;;
40659;SDS011;26753;45.544;9.232;2022-07-25T12:15:20;9.80;;;6.05;;
40659;SDS011;26753;45.544;9.232;2022-07-25T12:17:52;9.95;;;6.15;;
40659;SDS011;26753;45.544;9.232;2022-07-25T12:20:19;9.60;;;5.70;;
40659;SDS011;26753;45.544;9.232;2022-07-25T12:22:47;8.57;;;5.88;;
40659;SDS011;26753;45.544;9.232;2022-07-25T12:25:17;8.40;;;5.90;;
40659;SDS011;26753;45.544;9.232;2022-07-25T12:27:43;11.73;;;6.30;;
40659;SDS011;26753;45.544;9.232;2022-07-25T12:30:10;9.30;;;6.30;;
40659;SDS011;26753;45.544;9.232;2022-07-25T12:32:36;7.72;;;5.63;;
40659;SDS011;26753;45.544;9.232;2022-07-25T12:35:03;12.90;;;6.35;;
40659;SDS011;26753;45.544;9.232;2022-07-25T12:37:35;10.30;;;7.72;;
40659;SDS011;26753;45.544;9.232;2022-07-25T12:40:10;9.73;;;5.80;;
40659;SDS011;26753;45.544;9.232;2022-07-25T12:45:08;10.63;;;6.18;;
40659;SDS011;26753;45.544;9.232;2022-07-25T12:47:36;8.55;;;6.03;;
40659;SDS011;26753;45.544;9.232;2022-07-25T12:50:03;13.20;;;6.30;;
40659;SDS011;26753;45.544;9.232;2022-07-25T12:52:29;9.57;;;5.63;;
40659;SDS011;26753;45.544;9.232;2022-07-25T12:54:55;10.50;;;6.00;;
40659;SDS011;26753;45.544;9.232;2022-07-25T12:57:21;9.30;;;6.20;;
40659;SDS011;26753;45.544;9.232;2022-07-25T12:59:48;7.30;;;5.80;;
40659;SDS011;26753;45.544;9.232;2022-07-25T13:02:14;10.77;;;5.90;;
40659;SDS011;26753;45.544;9.232;2022-07-25T13:04:49;9.25;;;5.75;;
40659;SDS011;26753;45.544;9.232;2022-07-25T13:07:15;10.82;;;5.88;;
40659;SDS011;26753;45.544;9.232;2022-07-25T13:09:41;10.10;;;5.70;;
40659;SDS011;26753;45.544;9.232;2022-07-25T13:12:15;11.38;;;5.78;;
40659;SDS011;26753;45.544;9.232;2022-07-25T13:14:43;9.60;;;5.80;;
40659;SDS011;26753;45.544;9.232;2022-07-25T13:17:09;9.30;;;5.63;;
40659;SDS011;26753;45.544;9.232;2022-07-25T13:19:35;8.38;;;5.60;;
40659;SDS011;26753;45.544;9.232;2022-07-25T13:22:01;9.70;;;5.63;;
40659;SDS011;26753;45.544;9.232;2022-07-25T13:24:27;9.70;;;6.15;;
40659;SDS011;26753;45.544;9.232;2022-07-25T13:26:55;11.35;;;6.13;;
40659;SDS011;26753;45.544;9.232;2022-07-25T13:29:21;7.78;;;5.70;;
40659;SDS011;26753;45.544;9.232;2022-07-25T13:31:49;10.43;;;5.88;;
40659;SDS011;26753;45.544;9.232;2022-07-25T13:36:46;8.10;;;5.97;;
40659;SDS011;26753;45.544;9.232;2022-07-25T13:39:15;8.50;;;5.65;;
40659;SDS011;26753;45.544;9.232;2022-07-25T13:41:41;9.98;;;5.53;;
40659;SDS011;26753;45.544;9.232;2022-07-25T13:44:07;7.20;;;6.00;;
40659;SDS011;26753;45.544;9.232;2022-07-25T13:46:37;9.32;;;8.25;;
40659;SDS011;26753;45.544;9.232;2022-07-25T13:49:03;8.68;;;5.38;;
40659;SDS011;26753;45.544;9.232;2022-07-25T13:51:29;8.73;;;5.40;;
40659;SDS011;26753;45.544;9.232;2022-07-25T13:54:00;8.10;;;5.47;;
40659;SDS011;26753;45.544;9.232;2022-07-25T13:56:35;7.00;;;5.13;;
40659;SDS011;26753;45.544;9.232;2022-07-25T13:59:02;8.38;;;5.20;;
40659;SDS011;26753;45.544;9.232;2022-07-25T14:01:28;8.00;;;5.78;;
40659;SDS011;26753;45.544;9.232;2022-07-25T14:03:54;6.28;;;5.32;;
40659;SDS011;26753;45.544;9.232;2022-07-25T14:06:20;8.23;;;5.25;;
40659;SDS011;26753;45.544;9.232;2022-07-25T14:08:46;6.45;;;4.95;;
40659;SDS011;26753;45.544;9.232;2022-07-25T14:11:12;9.98;;;5.30;;
40659;SDS011;26753;45.544;9.232;2022-07-25T14:13:38;7.13;;;5.05;;
40659;SDS011;26753;45.544;9.232;2022-07-25T14:16:04;7.45;;;5.00;;
40659;SDS011;26753;45.544;9.232;2022-07-25T14:18:30;9.45;;;5.38;;
40659;SDS011;26753;45.544;9.232;2022-07-25T14:20:59;7.97;;;5.30;;
40659;SDS011;26753;45.544;9.232;2022-07-25T14:23:25;10.00;;;5.10;;
40659;SDS011;26753;45.544;9.232;2022-07-25T14:25:51;6.13;;;4.90;;
40659;SDS011;26753;45.544;9.232;2022-07-25T14:28:17;9.13;;;5.03;;
40659;SDS011;26753;45.544;9.232;2022-07-25T14:30:43;7.28;;;5.00;;
40659;SDS011;26753;45.544;9.232;2022-07-25T14:33:11;8.60;;;5.40;;
40659;SDS011;26753;45.544;9.232;2022-07-25T14:35:40;8.48;;;4.93;;
40659;SDS011;26753;45.544;9.232;2022-07-25T14:38:07;7.35;;;5.10;;
40659;SDS011;26753;45.544;9.232;2022-07-25T14:40:38;8.45;;;5.35;;
40659;SDS011;26753;45.544;9.232;2022-07-25T14:43:24;7.38;;;5.20;;
40659;SDS011;26753;45.544;9.232;2022-07-25T14:45:52;8.73;;;5.28;;
40659;SDS011;26753;45.544;9.232;2022-07-25T14:48:21;7.50;;;5.30;;
40659;SDS011;26753;45.544;9.232;2022-07-25T14:50:47;8.05;;;5.10;;
40659;SDS011;26753;45.544;9.232;2022-07-25T14:53:13;8.00;;;5.10;;
40659;SDS011;26753;45.544;9.232;2022-07-25T14:55:39;9.35;;;5.13;;
40659;SDS011;26753;45.544;9.232;2022-07-25T14:58:05;7.30;;;5.22;;
40659;SDS011;26753;45.544;9.232;2022-07-25T15:00:31;7.97;;;5.20;;
40659;SDS011;26753;45.544;9.232;2022-07-25T15:02:57;9.75;;;8.57;;
40659;SDS011;26753;45.544;9.232;2022-07-25T15:05:23;6.45;;;5.18;;
40659;SDS011;26753;45.544;9.232;2022-07-25T15:07:50;7.38;;;4.72;;
40659;SDS011;26753;45.544;9.232;2022-07-25T15:10:18;5.40;;;4.63;;
40659;SDS011;26753;45.544;9.232;2022-07-25T15:12:44;7.93;;;4.50;;
40659;SDS011;26753;45.544;9.232;2022-07-25T15:15:10;5.82;;;4.43;;
40659;SDS011;26753;45.544;9.232;2022-07-25T15:17:36;5.50;;;4.90;;
40659;SDS011;26753;45.544;9.232;2022-07-25T15:20:03;6.82;;;4.60;;
40659;SDS011;26753;45.544;9.232;2022-07-25T15:22:37;7.50;;;5.15;;
40659;SDS011;26753;45.544;9.232;2022-07-25T15:25:09;7.15;;;4.50;;
40659;SDS011;26753;45.544;9.232;2022-07-25T15:27:36;6.32;;;4.60;;